Time;durP1;ratioP1;P1;durP2;ratioP2;P2;SDS_P1;SDS_P2;PMS_P1;PMS_P2;Temp;Humidity;BMP_temperature;BMP_pressure;BME280_temperature;BME280_humidity;BME280_pressure;Samples;Min_cycle;Max_cycle;Signal;HPM_P1;HPM_P2
2022/07/25 00:02:16;;;;;;;9.13;7.57;;;22.70;99.90;;;;;;5097818;28;20498;-72
2022/07/25 00:04:41;;;;;;;7.88;7.07;;;22.70;99.90;;;;;;5101270;28;20370;-68
2022/07/25 00:07:07;;;;;;;13.60;8.95;;;22.80;99.90;;;;;;5104513;28;20048;-70
2022/07/25 00:09:33;;;;;;;9.00;7.75;;;22.70;99.90;;;;;;5104114;28;20044;-70
2022/07/25 00:11:59;;;;;;;8.75;7.82;;;22.70;99.90;;;;;;5104496;28;20040;-68
2022/07/25 00:14:24;;;;;;;9.63;8.10;;;22.70;99.90;;;;;;5104762;28;20047;-70
2022/07/25 00:16:50;;;;;;;9.75;7.22;;;22.70;99.90;;;;;;5079946;28;20051;-69
2022/07/25 00:19:17;;;;;;;7.90;6.05;;;22.70;99.90;;;;;;5103822;28;20442;-69
2022/07/25 00:21:42;;;;;;;8.65;6.47;;;22.70;99.90;;;;;;5101613;28;20335;-73
2022/07/25 00:24:08;;;;;;;6.05;5.25;;;22.70;99.90;;;;;;5096556;28;20101;-70
2022/07/25 00:26:33;;;;;;;8.32;6.00;;;22.70;99.90;;;;;;5096679;28;20037;-69
2022/07/25 00:29:00;;;;;;;6.68;6.03;;;22.70;99.90;;;;;;5078690;28;20051;-70
2022/07/25 00:31:26;;;;;;;8.43;5.85;;;22.70;99.90;;;;;;5078770;28;20043;-69
2022/07/25 00:33:51;;;;;;;9.77;5.60;;;22.60;99.90;;;;;;5079106;28;20055;-69
2022/07/25 00:36:17;;;;;;;8.65;6.97;;;22.60;99.90;;;;;;5096581;28;20182;-72
2022/07/25 00:38:42;;;;;;;6.97;6.15;;;22.60;99.90;;;;;;5096446;28;20450;-72
2022/07/25 00:41:08;;;;;;;7.68;6.10;;;22.50;99.90;;;;;;5096443;28;20134;-71
2022/07/25 00:43:34;;;;;;;9.88;6.05;;;22.40;99.90;;;;;;5096328;28;20464;-72
2022/07/25 00:45:59;;;;;;;7.03;5.85;;;22.40;99.90;;;;;;5096209;28;20336;-71
2022/07/25 00:48:28;;;;;;;7.57;6.00;;;22.30;99.90;;;;;;5078470;28;20121;-69
2022/07/25 00:50:55;;;;;;;7.88;5.53;;;22.30;99.90;;;;;;5096097;28;20353;-69
2022/07/25 00:53:21;;;;;;;7.32;6.13;;;22.20;99.90;;;;;;5096207;28;20040;-71
2022/07/25 00:55:47;;;;;;;9.45;6.55;;;22.30;99.90;;;;;;5061723;28;20086;-72
2022/07/25 00:58:13;;;;;;;7.78;6.57;;;22.20;99.90;;;;;;5095867;28;20048;-72
2022/07/25 01:00:39;;;;;;;6.57;5.88;;;22.10;99.90;;;;;;5078164;28;20039;-73
2022/07/25 01:03:07;;;;;;;6.60;5.90;;;22.10;99.90;;;;;;5095979;28;20032;-69
2022/07/25 01:05:33;;;;;;;8.70;6.70;;;22.10;99.90;;;;;;5077894;28;20519;-69
2022/07/25 01:07:59;;;;;;;7.35;6.20;;;22.10;99.90;;;;;;5096093;28;20032;-69
2022/07/25 01:10:24;;;;;;;6.40;5.75;;;22.00;99.90;;;;;;5095808;28;20433;-69
2022/07/25 01:12:54;;;;;;;6.82;6.15;;;22.00;99.90;;;;;;5078317;28;20044;-69
2022/07/25 01:15:22;;;;;;;7.95;5.88;;;22.00;99.90;;;;;;5078117;28;20457;-69
2022/07/25 01:17:48;;;;;;;6.55;5.85;;;22.00;99.90;;;;;;5095518;28;20553;-73
2022/07/25 01:20:21;;;;;;;8.05;6.20;;;22.00;99.90;;;;;;5095731;28;20134;-69
2022/07/25 01:22:47;;;;;;;6.83;6.23;;;21.90;99.90;;;;;;5095859;28;20051;-70
2022/07/25 01:25:14;;;;;;;6.50;5.82;;;21.90;99.90;;;;;;5077844;28;20052;-70
2022/07/25 01:27:41;;;;;;;7.97;6.13;;;21.90;99.90;;;;;;5076789;28;20040;-71
2022/07/25 01:30:08;;;;;;;7.10;5.53;;;21.80;99.90;;;;;;5095242;28;20101;-72
2022/07/25 01:32:34;;;;;;;6.38;5.78;;;21.80;99.90;;;;;;5095590;28;20059;-69
2022/07/25 01:35:01;;;;;;;8.27;6.10;;;21.90;99.90;;;;;;5095743;28;20044;-71
2022/07/25 01:37:26;;;;;;;7.05;6.35;;;21.80;99.90;;;;;;5095332;28;20434;-68
2022/07/25 01:39:52;;;;;;;10.23;6.63;;;21.70;99.90;;;;;;5095452;28;20058;-72
2022/07/25 01:42:18;;;;;;;7.57;5.75;;;21.80;99.90;;;;;;5095026;28;20044;-71
2022/07/25 01:44:43;;;;;;;6.90;6.15;;;21.80;99.90;;;;;;5095345;28;20054;-69
2022/07/25 01:47:09;;;;;;;7.68;6.22;;;21.70;99.90;;;;;;5095494;28;20069;-70
2022/07/25 01:49:34;;;;;;;8.35;6.05;;;21.70;99.90;;;;;;5095102;28;20441;-70
2022/07/25 01:52:00;;;;;;;6.85;5.45;;;21.70;99.90;;;;;;5060995;28;20070;-71
2022/07/25 01:54:25;;;;;;;6.80;5.50;;;21.70;99.90;;;;;;5095148;28;20450;-71
2022/07/25 01:56:51;;;;;;;6.78;6.07;;;21.70;99.90;;;;;;5095147;28;20040;-70
2022/07/25 01:59:17;;;;;;;7.07;6.38;;;21.80;99.90;;;;;;5095144;28;20071;-69
2022/07/25 02:01:43;;;;;;;6.75;5.90;;;21.80;99.90;;;;;;5095259;28;20041;-68
2022/07/25 02:04:08;;;;;;;7.35;5.38;;;21.70;99.90;;;;;;5095181;28;20044;-71
2022/07/25 02:06:34;;;;;;;9.25;5.78;;;21.70;99.90;;;;;;5095157;28;20045;-73
2022/07/25 02:09:01;;;;;;;8.48;5.93;;;21.70;99.90;;;;;;5095123;28;20044;-70
2022/07/25 02:11:26;;;;;;;6.25;5.35;;;21.70;99.90;;;;;;5077505;28;20119;-69
2022/07/25 02:13:52;;;;;;;7.68;6.32;;;21.70;99.90;;;;;;5095099;28;20136;-72
2022/07/25 02:16:17;;;;;;;6.50;5.72;;;21.70;99.90;;;;;;5095165;28;20369;-70
2022/07/25 02:18:43;;;;;;;7.13;5.82;;;21.70;99.90;;;;;;5094875;28;20056;-69
2022/07/25 02:21:09;;;;;;;8.55;5.63;;;21.70;99.90;;;;;;5095010;28;20044;-69
2022/07/25 02:23:35;;;;;;;8.93;5.97;;;21.70;99.90;;;;;;5094899;28;20126;-69
2022/07/25 02:26:01;;;;;;;7.50;5.68;;;21.70;99.90;;;;;;5094815;28;20044;-71
2022/07/25 02:28:27;;;;;;;9.30;6.18;;;21.70;99.90;;;;;;5095006;28;20055;-69
2022/07/25 02:30:52;;;;;;;7.20;6.40;;;21.70;99.90;;;;;;5094622;28;20135;-72
2022/07/25 02:33:18;;;;;;;7.47;6.53;;;21.70;99.90;;;;;;5094878;28;20113;-71
2022/07/25 02:35:44;;;;;;;7.13;5.93;;;21.60;99.90;;;;;;5095047;28;20048;-71
2022/07/25 02:38:10;;;;;;;8.73;5.97;;;21.60;99.90;;;;;;5094945;28;20043;-69
2022/07/25 02:40:35;;;;;;;7.57;6.60;;;21.60;99.90;;;;;;5098626;28;20051;-71
2022/07/25 02:43:01;;;;;;;9.35;6.40;;;21.60;99.90;;;;;;5098546;28;20509;-70
2022/07/25 02:45:27;;;;;;;8.70;6.13;;;21.50;99.90;;;;;;5098597;28;20055;-70
2022/07/25 02:47:52;;;;;;;10.45;7.00;;;21.50;99.90;;;;;;5098605;28;20036;-70
2022/07/25 02:50:18;;;;;;;12.45;7.18;;;21.50;99.90;;;;;;5098669;28;20510;-71
2022/07/25 02:52:44;;;;;;;12.57;8.25;;;21.50;99.90;;;;;;5098607;28;20044;-70
2022/07/25 02:55:10;;;;;;;11.32;8.73;;;21.50;99.90;;;;;;5098321;28;20040;-71
2022/07/25 02:57:36;;;;;;;10.70;8.57;;;21.50;99.90;;;;;;5098477;28;20044;-71
2022/07/25 03:00:04;;;;;;;9.43;7.25;;;21.40;99.90;;;;;;5098426;28;20059;-72
2022/07/25 03:02:29;;;;;;;10.05;7.45;;;21.40;99.90;;;;;;5098483;28;20345;-71
2022/07/25 03:04:55;;;;;;;10.30;7.32;;;21.40;99.90;;;;;;5098273;28;20047;-72
2022/07/25 03:07:20;;;;;;;8.73;7.55;;;21.40;99.90;;;;;;5098182;28;20358;-71
2022/07/25 03:09:46;;;;;;;7.00;6.32;;;21.40;99.90;;;;;;5097973;28;20140;-72
2022/07/25 03:12:12;;;;;;;9.55;7.25;;;21.40;99.90;;;;;;5098080;28;20040;-71
2022/07/25 03:14:37;;;;;;;9.32;7.10;;;21.30;99.90;;;;;;5097859;28;20044;-69
2022/07/25 03:17:03;;;;;;;8.13;7.07;;;21.40;99.90;;;;;;5080158;28;20117;-69
2022/07/25 03:19:28;;;;;;;7.88;7.07;;;21.40;99.90;;;;;;5097891;28;20459;-72
2022/07/25 03:21:54;;;;;;;9.25;7.20;;;21.40;99.90;;;;;;5097993;28;20043;-72
2022/07/25 03:24:19;;;;;;;7.63;6.80;;;21.30;99.90;;;;;;5080993;28;20070;-71
2022/07/25 03:26:45;;;;;;;7.18;6.30;;;21.40;99.90;;;;;;5097816;28;20044;-72
2022/07/25 03:29:11;;;;;;;9.70;6.85;;;21.40;99.90;;;;;;5079734;28;20047;-70
2022/07/25 03:31:36;;;;;;;9.55;6.88;;;21.40;99.90;;;;;;5097863;28;20131;-70
2022/07/25 03:34:02;;;;;;;10.68;7.20;;;21.40;99.90;;;;;;5098138;28;20052;-69
2022/07/25 03:36:28;;;;;;;7.47;6.60;;;21.40;99.90;;;;;;5098011;28;20147;-72
2022/07/25 03:38:55;;;;;;;7.00;6.30;;;21.40;99.90;;;;;;5101428;28;20513;-69
2022/07/25 03:41:21;;;;;;;8.68;5.95;;;21.40;99.90;;;;;;5104279;28;20040;-69
2022/07/25 03:43:47;;;;;;;10.45;7.50;;;21.30;99.90;;;;;;5104062;28;20070;-69
2022/07/25 03:46:12;;;;;;;12.00;7.60;;;21.30;99.90;;;;;;5086411;28;20477;-68
2022/07/25 03:48:38;;;;;;;13.20;7.78;;;21.20;99.90;;;;;;5103929;28;20036;-68
2022/07/25 03:51:03;;;;;;;9.98;6.80;;;21.20;99.90;;;;;;5102915;28;20134;-71
2022/07/25 03:53:29;;;;;;;8.02;7.18;;;21.10;99.90;;;;;;5098220;28;20044;-69
2022/07/25 03:55:54;;;;;;;9.73;7.50;;;21.10;99.90;;;;;;5096853;28;20036;-72
2022/07/25 03:58:20;;;;;;;10.05;6.53;;;21.10;99.90;;;;;;5079474;28;20047;-70
2022/07/25 04:00:47;;;;;;;14.35;6.60;;;21.00;99.90;;;;;;5079568;28;20048;-69
2022/07/25 04:03:13;;;;;;;8.98;6.47;;;21.00;99.90;;;;;;5097085;28;20502;-71
2022/07/25 04:05:39;;;;;;;7.65;5.80;;;21.00;99.90;;;;;;5097166;28;20078;-69
2022/07/25 04:08:04;;;;;;;7.07;6.30;;;21.00;99.90;;;;;;5097111;28;20035;-69
2022/07/25 04:10:30;;;;;;;9.10;6.47;;;21.00;99.90;;;;;;5079076;28;20470;-71
2022/07/25 04:12:56;;;;;;;7.78;5.95;;;21.00;99.90;;;;;;5096923;28;20059;-72
2022/07/25 04:15:21;;;;;;;7.10;6.10;;;20.90;99.90;;;;;;5096795;28;20128;-70
2022/07/25 04:17:47;;;;;;;7.30;6.40;;;20.90;99.90;;;;;;5096944;28;20048;-71
2022/07/25 04:20:13;;;;;;;8.35;7.55;;;21.00;99.90;;;;;;5078918;28;20063;-70
2022/07/25 04:22:38;;;;;;;8.80;7.90;;;20.90;99.90;;;;;;5096794;28;20112;-70
2022/07/25 04:25:05;;;;;;;9.30;7.18;;;21.00;99.90;;;;;;5096585;28;20047;-69
2022/07/25 04:27:30;;;;;;;9.57;6.68;;;21.00;99.90;;;;;;5078604;28;20048;-71
2022/07/25 04:29:56;;;;;;;8.52;7.63;;;21.00;99.90;;;;;;5062097;28;20051;-69
2022/07/25 04:32:22;;;;;;;10.02;9.00;;;21.00;99.90;;;;;;5096555;28;20062;-71
2022/07/25 04:34:47;;;;;;;9.95;8.73;;;21.00;99.90;;;;;;5096689;28;20051;-71
2022/07/25 04:37:13;;;;;;;11.73;8.85;;;21.00;99.90;;;;;;5096610;28;20055;-70
2022/07/25 04:39:38;;;;;;;11.10;9.85;;;21.00;99.90;;;;;;5096352;28;20177;-69
2022/07/25 04:42:04;;;;;;;10.95;9.52;;;21.10;99.90;;;;;;5078646;28;20530;-71
2022/07/25 04:44:29;;;;;;;12.13;9.05;;;21.10;99.90;;;;;;5096314;28;20036;-71
2022/07/25 04:46:55;;;;;;;9.38;8.43;;;21.20;99.90;;;;;;5096328;28;20051;-70
2022/07/25 04:49:20;;;;;;;9.88;8.95;;;21.10;99.90;;;;;;5096286;28;20079;-72
2022/07/25 04:51:46;;;;;;;14.75;10.75;;;21.20;99.90;;;;;;5096196;28;20055;-72
2022/07/25 04:54:12;;;;;;;13.82;10.32;;;21.20;99.90;;;;;;5096046;28;20429;-70
2022/07/25 04:56:37;;;;;;;11.55;10.32;;;21.30;99.90;;;;;;5095993;28;20055;-72
2022/07/25 04:59:03;;;;;;;12.55;10.32;;;21.20;99.90;;;;;;5096160;28;20040;-71
2022/07/25 05:01:28;;;;;;;11.98;9.85;;;21.30;99.90;;;;;;5096181;28;20040;-69
2022/07/25 05:03:54;;;;;;;12.18;10.98;;;21.30;99.90;;;;;;5095987;28;20114;-69
2022/07/25 05:06:19;;;;;;;12.75;11.27;;;21.30;99.90;;;;;;5096030;28;20494;-69
2022/07/25 05:08:46;;;;;;;15.23;12.23;;;21.30;99.90;;;;;;5095697;28;20396;-69
2022/07/25 05:11:12;;;;;;;12.38;10.65;;;21.30;99.90;;;;;;5095467;28;20405;-71
2022/07/25 05:13:37;;;;;;;12.95;10.85;;;21.40;99.90;;;;;;5095699;28;20040;-73
2022/07/25 05:16:04;;;;;;;12.68;10.65;;;21.30;99.90;;;;;;5095697;28;20059;-70
2022/07/25 05:18:29;;;;;;;11.85;10.48;;;21.30;99.90;;;;;;5095688;28;20048;-72
2022/07/25 05:20:55;;;;;;;12.95;11.55;;;21.40;99.90;;;;;;5061262;28;20048;-70
2022/07/25 05:23:21;;;;;;;13.63;12.15;;;21.40;99.90;;;;;;5095736;28;20066;-70
2022/07/25 05:25:46;;;;;;;15.43;11.57;;;21.30;99.90;;;;;;5095909;28;20047;-71
2022/07/25 05:28:13;;;;;;;21.25;13.40;;;21.20;99.90;;;;;;5095563;28;20094;-72
2022/07/25 05:30:39;;;;;;;16.80;13.05;;;21.20;99.90;;;;;;5077817;28;20047;-72
2022/07/25 05:33:06;;;;;;;18.80;13.23;;;21.20;99.90;;;;;;5095596;28;20131;-73
2022/07/25 05:35:32;;;;;;;17.88;13.63;;;21.30;99.90;;;;;;5095497;28;20436;-71
2022/07/25 05:37:57;;;;;;;17.42;13.88;;;21.30;99.90;;;;;;5095417;28;20048;-69
2022/07/25 05:40:23;;;;;;;22.35;13.73;;;21.30;99.90;;;;;;5095375;28;20131;-71
2022/07/25 05:42:48;;;;;;;18.23;14.77;;;21.20;99.90;;;;;;5095526;28;20133;-69
2022/07/25 05:45:14;;;;;;;15.48;13.75;;;21.30;99.90;;;;;;5095367;28;20044;-72
2022/07/25 05:47:40;;;;;;;17.10;15.07;;;21.40;99.90;;;;;;5095206;28;20043;-72
2022/07/25 05:50:06;;;;;;;19.30;16.15;;;21.40;99.90;;;;;;5077375;28;20101;-72
2022/07/25 05:52:31;;;;;;;21.30;16.05;;;21.40;99.90;;;;;;5095202;28;20036;-69
2022/07/25 05:54:57;;;;;;;20.17;14.77;;;21.40;99.90;;;;;;5094940;28;20123;-69
2022/07/25 05:57:22;;;;;;;16.13;14.50;;;21.40;99.90;;;;;;5095327;28;20118;-69
2022/07/25 05:59:48;;;;;;;16.50;14.73;;;21.40;99.90;;;;;;5095260;28;20036;-72
2022/07/25 06:02:13;;;;;;;17.23;15.02;;;21.40;99.90;;;;;;5095221;28;20044;-72
2022/07/25 06:04:39;;;;;;;16.80;15.00;;;21.50;99.90;;;;;;5095096;28;20131;-68
2022/07/25 06:07:05;;;;;;;18.52;14.90;;;21.50;99.90;;;;;;5094699;28;20055;-70
2022/07/25 06:09:30;;;;;;;18.08;14.68;;;21.50;99.90;;;;;;5095175;28;20037;-71
2022/07/25 06:11:56;;;;;;;18.83;15.02;;;21.60;99.90;;;;;;5095379;28;20055;-70
2022/07/25 06:14:22;;;;;;;17.55;15.68;;;21.60;99.90;;;;;;5097042;28;20040;-69
2022/07/25 06:16:47;;;;;;;17.38;15.57;;;21.70;99.90;;;;;;5081490;28;20098;-71
2022/07/25 06:19:13;;;;;;;16.50;14.38;;;21.70;99.90;;;;;;5099137;28;20044;-71
2022/07/25 06:21:38;;;;;;;17.05;15.23;;;21.70;99.90;;;;;;5099044;28;20081;-71
2022/07/25 06:24:04;;;;;;;17.00;14.95;;;21.70;99.90;;;;;;5099047;28;20119;-69
2022/07/25 06:26:30;;;;;;;18.55;15.30;;;21.70;99.90;;;;;;5099244;28;20051;-71
2022/07/25 06:28:56;;;;;;;17.98;14.20;;;21.80;99.90;;;;;;5098762;28;20140;-73
2022/07/25 06:31:21;;;;;;;18.13;13.00;;;21.80;99.90;;;;;;5080671;28;20044;-71
2022/07/25 06:33:47;;;;;;;14.77;12.93;;;21.90;99.90;;;;;;5080801;28;20099;-69
2022/07/25 06:36:12;;;;;;;13.52;11.82;;;21.90;99.90;;;;;;5098673;28;20172;-72
2022/07/25 06:38:38;;;;;;;15.15;11.15;;;21.90;99.90;;;;;;5098468;28;20327;-72
2022/07/25 06:41:03;;;;;;;12.25;11.07;;;22.00;99.90;;;;;;5098737;28;20044;-72
2022/07/25 06:43:29;;;;;;;13.25;11.10;;;22.10;99.90;;;;;;5098605;28;20063;-69
2022/07/25 06:45:55;;;;;;;12.50;10.40;;;22.10;99.90;;;;;;5099158;28;20047;-69
2022/07/25 06:48:22;;;;;;;11.90;9.13;;;22.20;99.90;;;;;;5098719;28;20462;-71
2022/07/25 06:50:48;;;;;;;11.07;9.52;;;22.30;99.90;;;;;;5098393;28;20048;-70
2022/07/25 06:53:14;;;;;;;12.82;9.77;;;22.20;99.90;;;;;;5098456;28;20048;-72
2022/07/25 06:55:40;;;;;;;10.18;8.20;;;22.30;99.90;;;;;;5098532;28;20050;-73
2022/07/25 06:58:05;;;;;;;9.20;6.97;;;22.30;99.90;;;;;;5098566;28;20346;-71
2022/07/25 07:00:31;;;;;;;7.18;6.45;;;22.40;99.90;;;;;;5099269;28;20050;-70
2022/07/25 07:03:00;;;;;;;6.47;5.32;;;22.40;99.90;;;;;;5103641;28;20122;-71
2022/07/25 07:05:27;;;;;;;6.93;5.07;;;22.30;99.90;;;;;;5098878;28;20043;-72
2022/07/25 07:07:53;;;;;;;6.35;4.05;;;22.20;99.90;;;;;;5102053;28;20052;-71
2022/07/25 07:10:19;;;;;;;8.77;4.32;;;22.10;99.90;;;;;;5101128;28;20047;-69
2022/07/25 07:12:45;;;;;;;5.30;4.30;;;22.00;99.90;;;;;;5104303;28;20074;-69
2022/07/25 07:15:11;;;;;;;5.93;4.63;;;21.90;99.90;;;;;;5104450;28;20036;-70
2022/07/25 07:17:37;;;;;;;6.10;4.90;;;21.90;99.90;;;;;;5104064;28;20047;-69
2022/07/25 07:20:04;;;;;;;7.10;4.80;;;21.70;99.90;;;;;;5102584;28;20036;-70
2022/07/25 07:22:30;;;;;;;5.38;4.47;;;21.60;99.90;;;;;;5097732;28;20373;-72
2022/07/25 07:24:55;;;;;;;8.13;4.95;;;21.50;99.90;;;;;;5062376;28;20048;-71
2022/07/25 07:27:23;;;;;;;7.45;5.00;;;21.50;99.90;;;;;;5097555;28;20389;-69
2022/07/25 07:29:49;;;;;;;9.18;4.38;;;21.40;99.90;;;;;;5097667;28;20461;-69
2022/07/25 07:32:15;;;;;;;5.38;4.20;;;21.30;99.90;;;;;;5097690;28;20048;-70
2022/07/25 07:34:40;;;;;;;6.22;4.25;;;21.30;99.90;;;;;;5097811;28;20491;-70
2022/07/25 07:37:06;;;;;;;6.80;4.00;;;21.20;99.90;;;;;;5097465;28;20324;-69
2022/07/25 07:39:32;;;;;;;6.50;3.85;;;21.20;99.90;;;;;;5097796;28;20044;-70
2022/07/25 07:41:57;;;;;;;7.53;5.22;;;21.10;99.90;;;;;;5097644;28;20430;-71
2022/07/25 07:44:23;;;;;;;6.25;3.90;;;21.10;99.90;;;;;;5097300;28;20059;-69
2022/07/25 07:46:49;;;;;;;9.30;4.38;;;21.10;99.90;;;;;;5097602;28;20050;-69
2022/07/25 07:49:14;;;;;;;6.05;4.60;;;21.00;99.90;;;;;;5097437;28;20048;-69
2022/07/25 07:51:40;;;;;;;6.68;4.35;;;21.10;99.90;;;;;;5097374;28;20076;-71
2022/07/25 07:56:50;;;;;;;5.60;3.75;;;21.00;99.90;;;;;;5097387;28;20418;-72
2022/07/25 07:59:15;;;;;;;7.78;3.97;;;21.00;99.90;;;;;;5097448;28;20115;-71
2022/07/25 08:01:41;;;;;;;7.68;4.40;;;21.00;99.90;;;;;;5096803;28;20513;-69
2022/07/25 08:04:07;;;;;;;6.82;3.90;;;20.90;99.90;;;;;;5097159;28;20032;-69
2022/07/25 08:06:32;;;;;;;6.70;3.75;;;20.90;99.90;;;;;;5096848;28;20036;-70
2022/07/25 08:08:58;;;;;;;7.20;3.70;;;20.90;99.90;;;;;;5096913;28;20032;-72
2022/07/25 08:11:25;;;;;;;7.93;3.60;;;21.00;99.90;;;;;;5097075;28;20093;-72
2022/07/25 08:13:51;;;;;;;7.10;3.80;;;21.10;99.90;;;;;;5097073;28;20044;-69
2022/07/25 08:16:17;;;;;;;7.30;4.50;;;21.20;99.90;;;;;;5097097;28;20032;-70
2022/07/25 08:18:43;;;;;;;7.00;3.85;;;21.10;99.90;;;;;;5096511;28;20430;-70
2022/07/25 08:21:09;;;;;;;9.82;3.53;;;21.20;99.90;;;;;;5096802;28;20096;-70
2022/07/25 08:23:37;;;;;;;7.43;4.28;;;21.10;99.90;;;;;;5096546;28;20129;-70
2022/07/25 08:26:03;;;;;;;9.02;3.95;;;21.10;99.90;;;;;;5078967;28;20051;-72
2022/07/25 08:28:29;;;;;;;7.78;4.30;;;21.10;99.90;;;;;;5078569;28;20052;-70
2022/07/25 08:30:55;;;;;;;7.70;3.78;;;21.20;99.90;;;;;;5096677;28;20113;-69
2022/07/25 08:33:21;;;;;;;7.97;3.97;;;21.30;99.90;;;;;;5096521;28;20112;-69
2022/07/25 08:35:52;;;;;;;8.85;4.00;;;21.30;99.90;;;;;;5096300;28;20370;-71
2022/07/25 08:38:18;;;;;;;10.48;3.78;;;21.30;99.90;;;;;;5096118;28;20044;-73
2022/07/25 08:40:45;;;;;;;9.45;4.10;;;21.40;99.90;;;;;;5096753;28;20048;-73
2022/07/25 08:43:12;;;;;;;7.53;3.65;;;21.30;99.90;;;;;;5096424;28;20051;-70
2022/07/25 08:45:44;;;;;;;7.72;4.43;;;21.40;99.90;;;;;;5096252;28;20044;-72
2022/07/25 08:48:10;;;;;;;6.88;3.95;;;21.40;99.90;;;;;;5096437;28;20392;-71
2022/07/25 08:50:37;;;;;;;5.15;3.30;;;21.30;99.90;;;;;;5073628;28;20090;-70
2022/07/25 08:53:03;;;;;;;7.60;3.95;;;21.30;99.90;;;;;;5057402;28;20375;-70
2022/07/25 08:55:29;;;;;;;7.88;3.97;;;21.20;99.90;;;;;;5073546;28;20094;-70
2022/07/25 08:57:55;;;;;;;4.85;3.60;;;21.20;99.90;;;;;;5073907;28;20049;-72
2022/07/25 09:00:23;;;;;;;11.18;4.72;;;21.10;99.90;;;;;;5073905;28;20138;-70
2022/07/25 09:02:51;;;;;;;13.82;4.90;;;21.00;99.90;;;;;;5073548;28;20486;-69
2022/07/25 09:05:19;;;;;;;12.23;4.22;;;20.90;99.90;;;;;;5073746;28;20066;-72
2022/07/25 09:07:44;;;;;;;9.82;4.80;;;20.70;99.90;;;;;;5073449;28;20363;-69
2022/07/25 09:10:16;;;;;;;10.18;4.88;;;20.50;99.90;;;;;;5056710;28;20059;-69
2022/07/25 09:12:55;;;;;;;10.23;4.97;;;20.50;99.90;;;;;;5073338;28;20467;-72
2022/07/25 09:15:32;;;;;;;9.55;4.68;;;20.50;99.90;;;;;;5073410;28;20060;-71
2022/07/25 09:18:04;;;;;;;10.07;4.15;;;20.50;99.90;;;;;;5073401;28;20513;-70
2022/07/25 09:20:57;;;;;;;8.43;4.97;;;20.50;99.90;;;;;;5074884;28;20082;-69
2022/07/25 09:23:34;;;;;;;11.55;4.72;;;20.60;99.90;;;;;;5091570;28;20059;-70
2022/07/25 09:26:05;;;;;;;12.70;5.20;;;20.50;99.90;;;;;;5095870;28;20071;-71
2022/07/25 09:28:38;;;;;;;13.32;5.18;;;20.60;99.90;;;;;;5095862;28;20059;-72
2022/07/25 09:31:04;;;;;;;13.73;4.85;;;20.70;99.90;;;;;;5078650;28;20140;-72
2022/07/25 09:33:30;;;;;;;13.95;4.82;;;20.70;99.90;;;;;;5095542;28;20075;-70
2022/07/25 09:35:56;;;;;;;11.65;4.75;;;20.80;99.90;;;;;;5095550;28;20058;-72
2022/07/25 09:38:23;;;;;;;19.50;5.05;;;20.70;99.90;;;;;;5095503;28;20357;-71
2022/07/25 09:41:00;;;;;;;11.93;4.80;;;20.80;99.90;;;;;;5077622;28;20055;-71
2022/07/25 09:43:37;;;;;;;13.35;5.38;;;20.80;99.90;;;;;;5095675;28;20044;-71
2022/07/25 09:46:03;;;;;;;10.85;4.57;;;20.80;99.90;;;;;;5095552;28;20036;-72
2022/07/25 09:48:29;;;;;;;11.23;5.60;;;20.80;99.90;;;;;;5094766;28;20044;-71
2022/07/25 09:50:55;;;;;;;11.32;4.97;;;21.00;99.90;;;;;;5095518;28;20043;-71
2022/07/25 09:53:21;;;;;;;15.25;5.03;;;21.10;99.90;;;;;;5095505;28;20044;-69
2022/07/25 09:55:46;;;;;;;12.02;4.72;;;21.20;99.90;;;;;;5095258;28;20366;-72
2022/07/25 09:58:14;;;;;;;11.00;4.65;;;21.30;99.90;;;;;;5095347;28;20123;-71
2022/07/25 10:00:41;;;;;;;18.70;4.80;;;21.40;99.90;;;;;;5095133;28;20115;-71
2022/07/25 10:03:23;;;;;;;11.18;4.65;;;21.60;99.90;;;;;;5077335;28;20419;-71
2022/07/25 10:06:09;;;;;;;14.38;5.60;;;21.70;99.90;;;;;;5095214;28;20040;-71
2022/07/25 10:08:40;;;;;;;10.20;5.00;;;21.80;99.90;;;;;;5094346;28;20048;-70
2022/07/25 10:11:21;;;;;;;11.35;4.72;;;21.50;99.90;;;;;;5077527;28;20052;-72
2022/07/25 10:13:47;;;;;;;15.32;5.75;;;21.30;99.90;;;;;;5095064;28;20119;-72
2022/07/25 10:16:22;;;;;;;12.32;4.47;;;21.50;99.90;;;;;;5095188;28;20040;-70
2022/07/25 10:18:57;;;;;;;10.35;4.63;;;21.40;99.90;;;;;;5095115;28;20036;-72
2022/07/25 10:21:25;;;;;;;11.00;4.68;;;21.30;99.90;;;;;;5077188;28;20070;-73
2022/07/25 10:24:05;;;;;;;13.57;4.68;;;21.40;99.90;;;;;;5094951;28;20090;-69
2022/07/25 10:26:32;;;;;;;14.05;4.78;;;21.20;99.90;;;;;;5095269;28;20052;-72
2022/07/25 10:28:58;;;;;;;8.77;4.15;;;21.20;99.90;;;;;;5094831;28;20055;-70
2022/07/25 10:31:31;;;;;;;11.88;4.65;;;21.10;99.90;;;;;;5094965;28;20414;-72
2022/07/25 10:33:59;;;;;;;13.32;5.22;;;21.10;99.90;;;;;;5094673;28;20122;-73
2022/07/25 10:36:30;;;;;;;11.80;4.10;;;21.00;99.90;;;;;;5094953;28;20040;-71
2022/07/25 10:38:59;;;;;;;16.58;4.93;;;21.10;99.90;;;;;;5076648;28;20048;-70
2022/07/25 10:41:25;;;;;;;12.13;4.68;;;21.10;99.90;;;;;;5094870;28;20473;-71
2022/07/25 10:43:54;;;;;;;9.88;4.70;;;21.10;99.90;;;;;;5094849;28;20036;-69
2022/07/25 10:46:25;;;;;;;13.38;5.05;;;21.00;99.90;;;;;;5077172;28;20044;-73
2022/07/25 10:49:02;;;;;;;11.68;4.63;;;20.90;99.90;;;;;;5076973;28;20429;-72
2022/07/25 10:51:32;;;;;;;13.73;4.53;;;20.90;99.90;;;;;;5094599;28;20438;-70
2022/07/25 10:53:58;;;;;;;10.10;4.60;;;20.90;99.90;;;;;;5094767;28;20040;-73
2022/07/25 10:56:26;;;;;;;13.15;4.30;;;20.90;99.90;;;;;;5094685;28;20101;-69
2022/07/25 10:58:59;;;;;;;11.35;4.68;;;20.90;99.90;;;;;;5094818;28;20046;-73
2022/07/25 11:01:24;;;;;;;15.60;4.80;;;21.00;99.90;;;;;;5080703;28;20040;-72
2022/07/25 11:03:52;;;;;;;12.82;5.70;;;21.00;99.90;;;;;;5098369;28;20044;-71
2022/07/25 11:06:39;;;;;;;12.65;5.20;;;21.10;99.90;;;;;;5098659;28;20054;-71
2022/07/25 11:09:15;;;;;;;17.10;5.05;;;21.20;99.90;;;;;;5080748;28;20048;-70
2022/07/25 11:11:46;;;;;;;11.82;4.80;;;21.10;99.90;;;;;;5097998;28;20044;-70
2022/07/25 11:14:22;;;;;;;10.30;4.13;;;21.00;99.90;;;;;;5098361;28;20048;-71
2022/07/25 11:16:54;;;;;;;13.27;4.40;;;21.00;99.90;;;;;;5098204;28;20047;-70
2022/07/25 11:19:28;;;;;;;11.88;4.72;;;21.20;99.90;;;;;;5098143;28;20048;-71
2022/07/25 11:21:56;;;;;;;12.40;4.32;;;21.30;99.90;;;;;;5097927;28;20080;-72
2022/07/25 11:24:33;;;;;;;12.95;4.63;;;21.60;99.90;;;;;;5098240;28;20143;-70
2022/07/25 11:26:59;;;;;;;9.65;4.55;;;21.90;99.90;;;;;;5097843;28;20434;-71
2022/07/25 11:29:27;;;;;;;13.25;4.18;;;22.00;99.90;;;;;;5097743;28;20044;-70
2022/07/25 11:31:55;;;;;;;8.27;3.70;;;22.20;99.90;;;;;;5097819;28;20118;-72
2022/07/25 11:34:23;;;;;;;10.13;4.03;;;22.10;99.90;;;;;;5097780;28;20048;-72
2022/07/25 11:36:50;;;;;;;9.63;4.28;;;22.40;99.90;;;;;;5097763;28;20374;-70
2022/07/25 11:39:16;;;;;;;9.38;4.13;;;22.20;99.90;;;;;;5097659;28;20055;-70
2022/07/25 11:41:42;;;;;;;10.77;4.43;;;22.40;99.90;;;;;;5097654;28;20044;-72
2022/07/25 11:44:08;;;;;;;15.60;4.35;;;22.30;99.90;;;;;;5097642;28;20067;-71
2022/07/25 11:46:43;;;;;;;9.63;3.83;;;22.90;99.90;;;;;;5097571;28;20101;-75
2022/07/25 11:49:10;;;;;;;13.60;4.18;;;22.80;99.90;;;;;;5097538;28;20352;-70
2022/07/25 11:51:37;;;;;;;14.80;4.40;;;22.50;99.90;;;;;;5097708;28;20334;-73
2022/07/25 11:54:12;;;;;;;8.90;4.10;;;22.40;99.90;;;;;;5097517;28;20040;-73
2022/07/25 11:56:38;;;;;;;13.45;4.80;;;22.50;99.90;;;;;;5097379;28;20052;-73
2022/07/25 11:59:04;;;;;;;10.45;3.90;;;22.60;99.90;;;;;;5097326;28;20058;-72
2022/07/25 12:01:38;;;;;;;15.02;4.60;;;22.50;99.90;;;;;;5097279;28;20450;-73
2022/07/25 12:04:15;;;;;;;10.68;4.15;;;22.30;99.90;;;;;;5097096;28;20044;-72
2022/07/25 12:06:43;;;;;;;8.10;3.75;;;22.20;99.90;;;;;;5097324;28;20048;-74
2022/07/25 12:09:14;;;;;;;9.02;3.90;;;22.20;99.90;;;;;;5097081;28;20127;-72
2022/07/25 12:11:40;;;;;;;12.20;4.97;;;22.10;99.90;;;;;;5096476;28;20151;-73
2022/07/25 12:14:07;;;;;;;11.45;4.60;;;22.10;99.90;;;;;;5097003;28;20075;-73
2022/07/25 12:16:34;;;;;;;11.10;4.43;;;22.20;99.90;;;;;;5096850;28;20090;-70
2022/07/25 12:18:59;;;;;;;8.48;3.95;;;22.20;99.90;;;;;;5096816;28;20453;-72
2022/07/25 12:21:26;;;;;;;6.57;3.63;;;22.70;99.90;;;;;;5096880;28;20040;-70
2022/07/25 12:23:52;;;;;;;15.63;4.85;;;22.80;99.90;;;;;;5079001;28;20055;-73
2022/07/25 12:26:18;;;;;;;10.35;4.20;;;23.10;99.90;;;;;;5062416;28;20048;-71
2022/07/25 12:28:44;;;;;;;8.15;3.72;;;23.10;99.90;;;;;;5078685;28;20505;-72
2022/07/25 12:31:09;;;;;;;12.80;4.05;;;23.00;99.90;;;;;;5096796;28;20048;-70
2022/07/25 12:33:35;;;;;;;12.15;4.63;;;22.70;99.90;;;;;;5096409;28;20482;-70
2022/07/25 12:36:01;;;;;;;8.63;3.67;;;22.70;99.90;;;;;;5096645;28;20040;-73
2022/07/25 12:38:27;;;;;;;7.93;3.45;;;22.50;99.90;;;;;;5097120;28;20096;-71
2022/07/25 12:40:54;;;;;;;15.13;4.63;;;22.40;99.90;;;;;;5096597;28;20113;-72
2022/07/25 12:43:20;;;;;;;24.60;5.70;;;22.60;99.90;;;;;;5096917;28;20454;-74